Time;durP1;ratioP1;P1;durP2;ratioP2;P2;SDS_P1;SDS_P2;PMS_P1;PMS_P2;Temp;Humidity;BMP_temperature;BMP_pressure;BME280_temperature;BME280_humidity;BME280_pressure;Samples;Min_cycle;Max_cycle;Signal;HPM_P1;HPM_P2
2022/06/18 00:00:36;;;;;;;25.80;16.70;;;;;;;13.66;68.93;99226.31;434269;1266;108808;-41
2022/06/18 00:10:45;;;;;;;29.30;15.40;;;;;;;13.54;69.27;99230.16;434206;1267;97888;-42
2022/06/18 00:20:52;;;;;;;18.20;13.10;;;;;;;13.47;69.51;99222.68;434209;1266;110770;-40
2022/06/18 00:31:00;;;;;;;25.30;11.50;;;;;;;13.47;69.79;99220.55;434123;1267;109035;-39
2022/06/18 00:41:14;;;;;;;11.30;8.70;;;;;;;13.43;69.86;99221.20;434156;1267;98448;-42
2022/06/18 00:51:23;;;;;;;16.30;8.10;;;;;;;13.29;69.65;99221.36;434319;1267;111577;-41
2022/06/18 01:01:31;;;;;;;13.10;7.20;;;;;;;13.29;69.81;99215.02;434224;1265;108807;-40
2022/06/18 01:11:42;;;;;;;13.40;8.60;;;;;;;13.33;69.82;99212.18;434148;1266;97910;-40
2022/06/18 01:21:49;;;;;;;12.00;6.50;;;;;;;13.23;69.99;99209.04;434069;1267;109240;-41
2022/06/18 01:31:57;;;;;;;16.40;8.00;;;;;;;13.11;70.06;99202.82;434676;1258;97905;-43
2022/06/18 01:42:11;;;;;;;11.70;7.40;;;;;;;13.03;70.14;99196.23;433246;1268;417381;-40
2022/06/18 01:52:20;;;;;;;10.60;6.10;;;;;;;13.04;70.21;99188.59;433393;1267;108863;-40
2022/06/18 02:02:28;;;;;;;11.80;7.60;;;;;;;13.04;70.34;99183.96;433496;1268;97921;-41
2022/06/18 02:12:35;;;;;;;11.10;8.50;;;;;;;12.89;70.39;99173.00;433621;1268;108823;-41
2022/06/18 02:22:44;;;;;;;14.30;10.00;;;;;;;12.70;70.47;99172.29;433503;1268;97488;-42
2022/06/18 02:32:50;;;;;;;17.80;12.20;;;;;;;12.60;70.76;99166.25;433310;1268;111140;-42
2022/06/18 02:42:59;;;;;;;14.90;11.00;;;;;;;12.52;70.97;99166.95;433470;1268;108866;-40
2022/06/18 02:53:08;;;;;;;22.40;10.60;;;;;;;12.51;71.14;99163.24;433505;1268;97667;-41
2022/06/18 03:03:17;;;;;;;20.20;9.60;;;;;;;12.43;71.62;99162.81;433380;1268;108840;-41
2022/06/18 03:13:26;;;;;;;13.50;10.00;;;;;;;12.51;71.81;99166.02;433268;1268;96683;-43
2022/06/18 03:23:34;;;;;;;17.10;10.80;;;;;;;14.59;70.96;99167.56;433530;1268;111207;-43
2022/06/18 03:33:41;;;;;;;12.50;9.70;;;;;;;16.44;68.92;99166.64;433497;1268;109314;-42
2022/06/18 03:43:49;;;;;;;20.10;10.30;;;;;;;17.95;67.02;99168.16;433347;1268;97973;-41
2022/06/18 03:53:59;;;;;;;13.60;8.60;;;;;;;19.65;65.37;99163.95;433504;1268;108900;-43
2022/06/18 04:04:07;;;;;;;15.00;8.20;;;;;;;20.95;63.42;99158.82;433567;1268;97902;-43
2022/06/18 04:14:14;;;;;;;9.80;6.80;;;;;;;22.39;62.03;99156.60;433262;1267;111101;-40
2022/06/18 04:24:22;;;;;;;9.80;6.60;;;;;;;24.15;59.92;99156.29;433469;1268;108055;-40
2022/06/18 04:34:29;;;;;;;11.10;6.30;;;;;;;24.43;56.90;99153.42;433626;1268;97993;-40
2022/06/18 04:44:36;;;;;;;10.10;6.80;;;;;;;24.55;55.68;99149.62;432559;1269;110645;-45
2022/06/18 04:54:44;;;;;;;8.60;6.30;;;;;;;25.09;54.77;99143.59;433361;1268;109702;-43
2022/06/18 05:04:54;;;;;;;6.80;5.80;;;;;;;25.72;53.75;99148.60;433550;1268;97919;-42
2022/06/18 05:15:00;;;;;;;10.20;5.70;;;;;;;26.18;52.93;99154.11;433394;1268;111151;-42
2022/06/18 05:25:10;;;;;;;7.50;5.30;;;;;;;26.72;52.74;99154.05;433353;1268;108870;-43
2022/06/18 05:35:17;;;;;;;8.30;5.00;;;;;;;26.83;51.66;99148.73;433266;1268;98003;-42
2022/06/18 05:45:25;;;;;;;6.80;4.70;;;;;;;26.62;50.73;99148.64;433572;1268;109385;-42
2022/06/18 05:55:32;;;;;;;12.00;5.20;;;;;;;25.93;50.68;99143.61;433152;1268;97936;-45
2022/06/18 06:05:40;;;;;;;5.70;5.10;;;;;;;25.17;51.09;99137.73;432744;1269;98060;-42
2022/06/18 06:25:54;;;;;;;5.50;3.80;;;;;;;26.43;50.31;99134.06;433491;1268;108400;-43
2022/06/18 06:36:02;;;;;;;6.20;3.70;;;;;;;26.96;49.48;99130.27;433307;1268;98548;-44
2022/06/18 07:06:46;;;;;;;6.40;2.70;;;;;;;27.31;47.25;99138.52;433153;1268;108850;-45
2022/06/18 07:16:54;;;;;;;7.40;2.40;;;;;;;27.42;47.07;99124.67;433186;1268;98006;-43
2022/06/18 07:27:03;;;;;;;4.70;2.60;;;;;;;27.70;45.81;99111.89;433303;1268;111169;-42
2022/06/18 07:37:10;;;;;;;3.60;2.00;;;;;;;27.55;45.58;99098.48;433457;1268;109386;-42
2022/06/18 07:47:20;;;;;;;4.00;2.40;;;;;;;27.48;45.06;99096.52;433379;1268;97052;-48
2022/06/18 07:57:27;;;;;;;2.30;2.10;;;;;;;27.29;44.98;99098.86;433372;1268;110046;-44
2022/06/18 08:07:35;;;;;;;3.90;2.10;;;;;;;27.95;44.76;99089.50;433340;1268;109020;-43
2022/06/18 08:17:42;;;;;;;6.90;2.10;;;;;;;27.69;44.20;99089.27;433063;1268;97937;-41
2022/06/18 08:27:51;;;;;;;1.80;1.60;;;;;;;27.86;43.68;99088.95;433355;1268;111531;-42
2022/06/18 08:37:59;;;;;;;2.30;1.80;;;;;;;28.25;43.17;99087.48;433153;1268;107850;-42
2022/06/18 09:08:36;;;;;;;3.10;1.90;;;;;;;27.33;41.80;99072.84;433185;1268;97939;-43
2022/06/18 09:18:49;;;;;;;1.10;1.00;;;;;;;27.05;41.77;99072.48;433282;1268;97927;-41
2022/06/18 09:29:01;;;;;;;1.40;1.30;;;;;;;27.70;42.21;99071.34;433187;1268;110073;-41
2022/06/18 09:49:15;;;;;;;3.00;1.70;;;;;;;28.21;40.70;99041.64;433199;1268;97935;-43
2022/06/18 09:59:28;;;;;;;2.30;1.60;;;;;;;28.64;40.59;99030.83;433157;1267;111044;-45
2022/06/18 10:09:35;;;;;;;2.50;1.30;;;;;;;28.30;40.11;99023.25;433320;1268;108867;-43
2022/06/18 10:19:44;;;;;;;2.20;1.80;;;;;;;28.01;39.53;99024.97;433526;1268;97529;-43
2022/06/18 10:29:56;;;;;;;2.40;1.30;;;;;;;27.82;39.81;99012.50;433286;1268;111156;-43
2022/06/18 10:40:13;;;;;;;1.40;1.30;;;;;;;28.00;39.82;98991.29;433467;1268;107691;-44
2022/06/18 10:50:23;;;;;;;1.70;1.60;;;;;;;28.05;39.27;98987.49;433217;1268;97912;-41
2022/06/18 11:00:30;;;;;;;2.90;1.40;;;;;;;28.05;38.98;98978.05;433387;1268;111151;-42
2022/06/18 11:10:35;;;;;;;2.00;1.70;;;;;;;28.13;38.78;98967.34;433350;1268;109007;-42
2022/06/18 11:20:55;;;;;;;7.70;1.60;;;;;;;28.18;38.28;98951.69;433292;1268;98603;-42
2022/06/18 11:31:04;;;;;;;2.80;1.90;;;;;;;28.16;38.23;98951.61;433253;1268;111549;-43
2022/06/18 11:41:09;;;;;;;2.90;1.30;;;;;;;28.36;38.25;98933.26;433494;1268;107606;-42
2022/06/18 11:51:21;;;;;;;4.30;1.90;;;;;;;28.27;38.42;98925.96;433227;1268;98070;-43
2022/06/18 12:01:29;;;;;;;4.00;1.60;;;;;;;28.02;37.44;98917.27;433215;1268;109074;-42
2022/06/18 12:11:38;;;;;;;4.00;2.10;;;;;;;28.10;38.21;98909.77;433426;1268;108813;-40
2022/06/18 12:32:00;;;;;;;4.70;2.20;;;;;;;28.28;38.37;98874.27;433308;1267;111357;-42
2022/06/18 12:42:11;;;;;;;2.20;2.00;;;;;;;28.21;38.07;98847.50;433566;1268;108813;-42
2022/06/18 13:02:39;;;;;;;3.50;1.60;;;;;;;28.32;37.80;98822.57;433393;1268;108871;-42
2022/06/18 13:13:00;;;;;;;7.50;1.40;;;;;;;28.25;37.59;98814.41;433198;1268;108885;-41
2022/06/18 13:33:13;;;;;;;2.50;1.60;;;;;;;27.72;37.40;98794.64;433138;1268;111056;-45
2022/06/18 13:43:19;;;;;;;3.50;1.40;;;;;;;27.94;37.57;98783.55;432567;1268;459236;-42
2022/06/18 13:53:24;;;;;;;;;;;;;;;28.12;38.21;98775.73;432808;1268;97926;-42
2022/06/18 14:03:31;;;;;;;2.00;1.00;;;;;;;28.19;38.15;98774.36;432489;1271;110475;-41
2022/06/18 14:23:58;;;;;;;5.80;1.50;;;;;;;28.08;38.23;98755.69;432918;1268;99377;-42
2022/06/18 14:34:05;;;;;;;5.90;1.80;;;;;;;28.04;37.78;98747.11;432971;1268;111374;-41
2022/06/18 14:55:09;;;;;;;3.90;1.60;;;;;;;27.95;38.01;98731.61;433208;1268;98030;-42
2022/06/18 15:05:19;;;;;;;3.70;1.60;;;;;;;27.93;38.19;98718.44;432894;1268;111213;-41
2022/06/18 15:15:43;;;;;;;1.90;1.20;;;;;;;27.90;38.49;98711.56;433234;1268;108844;-41
2022/06/18 15:25:49;;;;;;;1.40;1.00;;;;;;;27.96;38.43;98703.92;433027;1268;97507;-42
2022/06/18 15:35:57;;;;;;;2.40;1.50;;;;;;;27.89;38.42;98696.65;432945;1267;111169;-44
2022/06/18 15:46:07;;;;;;;2.10;1.80;;;;;;;27.85;38.18;98685.49;433084;1268;107619;-45
2022/06/18 16:06:22;;;;;;;6.40;1.90;;;;;;;27.65;38.43;98672.54;433122;1268;98044;-41
2022/06/18 16:16:53;;;;;;;8.80;1.80;;;;;;;27.49;38.85;98674.52;433162;1268;111318;-43
2022/06/18 16:27:02;;;;;;;4.80;2.20;;;;;;;27.42;39.04;98667.60;432685;1269;107733;-41
2022/06/18 16:47:22;;;;;;;4.50;1.50;;;;;;;27.19;39.59;98657.66;433100;1267;111063;-40
2022/06/18 16:57:30;;;;;;;1.50;1.40;;;;;;;27.07;39.93;98649.10;433103;1268;108587;-41
2022/06/18 17:07:38;;;;;;;3.00;2.10;;;;;;;26.94;40.18;98649.20;433301;1268;108068;-43
2022/06/18 17:17:44;;;;;;;;;;;;;;;26.79;40.69;98649.45;433137;1267;97995;-43
2022/06/18 17:38:19;;;;;;;2.40;2.30;;;;;;;26.43;40.99;98638.98;432985;1268;109822;-41
2022/06/18 17:48:26;;;;;;;4.00;2.80;;;;;;;26.14;41.76;98636.20;432970;1268;98011;-45
2022/06/18 17:58:32;;;;;;;5.30;4.00;;;;;;;25.87;42.13;98635.52;433428;1268;98613;-41
2022/06/18 18:08:46;;;;;;;6.20;3.00;;;;;;;25.57;42.61;98623.17;433241;1267;110497;-45
2022/06/18 18:18:53;;;;;;;6.70;4.00;;;;;;;25.24;43.35;98619.64;433373;1268;108801;-41
2022/06/18 18:29:00;;;;;;;5.60;4.20;;;;;;;24.88;43.98;98620.14;433264;1268;97942;-41
2022/06/18 18:49:13;;;;;;;9.90;4.70;;;;;;;24.03;45.66;98616.64;433366;1268;107704;-43
2022/06/18 18:59:21;;;;;;;8.50;4.70;;;;;;;23.68;46.50;98620.20;432474;1269;97929;-41
2022/06/18 19:09:28;;;;;;;9.70;4.60;;;;;;;23.30;47.35;98624.58;433643;1267;111112;-41
2022/06/18 19:19:36;;;;;;;10.20;4.80;;;;;;;22.99;48.23;98624.45;433376;1268;108759;-44
2022/06/18 19:29:45;;;;;;;9.70;5.10;;;;;;;22.84;48.93;98639.04;433521;1268;97909;-40
2022/06/18 19:39:53;;;;;;;8.00;4.30;;;;;;;22.61;49.24;98637.34;433531;1268;111218;-40
2022/06/18 19:49:59;;;;;;;8.90;4.50;;;;;;;22.39;49.85;98646.89;433284;1268;108617;-42
2022/06/18 20:00:07;;;;;;;13.20;6.60;;;;;;;22.09;50.41;98643.61;433438;1268;98022;-44
2022/06/18 20:20:22;;;;;;;7.60;5.20;;;;;;;21.55;51.77;98637.42;433442;1268;108028;-43
2022/06/18 20:30:30;;;;;;;9.20;6.70;;;;;;;21.40;52.18;98641.13;433479;1267;98026;-42
2022/06/18 20:50:59;;;;;;;10.90;3.70;;;;;;;21.26;52.73;98633.01;433666;1268;108899;-43
2022/06/18 21:11:13;;;;;;;4.00;3.70;;;;;;;21.07;53.30;98625.66;433294;1268;110136;-40
2022/06/18 21:21:19;;;;;;;8.00;4.60;;;;;;;21.03;53.50;98616.28;432561;1269;108794;-43
2022/06/18 21:41:51;;;;;;;5.50;3.50;;;;;;;21.00;53.54;98603.74;432665;1269;107264;-42
2022/06/18 21:52:00;;;;;;;3.30;2.90;;;;;;;20.97;53.64;98597.04;433529;1268;98481;-43
2022/06/18 22:02:07;;;;;;;4.50;3.20;;;;;;;21.09;53.52;98608.96;433634;1268;109898;-42
2022/06/18 22:22:40;;;;;;;3.70;3.10;;;;;;;21.19;53.28;98612.85;433634;1268;96678;-41
2022/06/18 22:32:47;;;;;;;3.90;3.20;;;;;;;21.13;53.33;98607.86;433316;1268;108603;-45
2022/06/18 22:42:56;;;;;;;4.00;2.80;;;;;;;21.07;53.38;98609.48;433548;1268;97907;-43
2022/06/18 23:03:36;;;;;;;6.30;3.00;;;;;;;20.91;53.52;98610.60;433337;1268;108878;-42
2022/06/18 23:13:41;;;;;;;;;;;;;;;20.87;53.60;98611.60;433398;1268;98617;-42
2022/06/18 23:23:49;;;;;;;4.10;2.70;;;;;;;20.79;53.68;98611.88;433526;1268;110933;-42
2022/06/18 23:33:57;;;;;;;4.30;3.30;;;;;;;20.73;53.63;98606.19;433516;1268;108773;-42
2022/06/18 23:54:12;;;;;;;5.40;3.50;;;;;;;20.46;53.93;98590.60;433415;1268;111057;-42
